sensor_id;sensor_type;location;lat;lon;timestamp;pressure;altitude;pressure_sealevel;temperature;humidity
51123;BME280;37162;41.724;13.346;2023-05-24T00:01:17;96581.50;;;17.66;79.30
51123;BME280;37162;41.724;13.346;2023-05-24T00:03:52;96575.31;;;17.66;79.44
51123;BME280;37162;41.724;13.346;2023-05-24T00:06:19;96569.94;;;17.66;79.52
51123;BME280;37162;41.724;13.346;2023-05-24T00:08:45;96575.06;;;17.67;79.65
51123;BME280;37162;41.724;13.346;2023-05-24T00:11:10;96564.31;;;17.67;79.52
51123;BME280;37162;41.724;13.346;2023-05-24T00:13:36;96565.13;;;17.68;79.53
51123;BME280;37162;41.724;13.346;2023-05-24T00:16:02;96573.19;;;17.68;79.50
51123;BME280;37162;41.724;13.346;2023-05-24T00:18:27;96563.25;;;17.68;79.58
51123;BME280;37162;41.724;13.346;2023-05-24T00:20:56;96565.13;;;17.68;79.76
51123;BME280;37162;41.724;13.346;2023-05-24T00:23:23;96562.44;;;17.68;79.63
51123;BME280;37162;41.724;13.346;2023-05-24T00:25:50;96552.22;;;17.65;79.43
51123;BME280;37162;41.724;13.346;2023-05-24T00:28:15;96561.63;;;17.67;79.44
51123;BME280;37162;41.724;13.346;2023-05-24T00:30:41;96558.94;;;17.67;79.53
51123;BME280;37162;41.724;13.346;2023-05-24T00:33:06;96567.00;;;17.67;79.36
51123;BME280;37162;41.724;13.346;2023-05-24T00:35:31;96562.97;;;17.65;79.41
51123;BME280;37162;41.724;13.346;2023-05-24T00:37:57;96571.56;;;17.67;79.24
51123;BME280;37162;41.724;13.346;2023-05-24T00:40:22;96575.06;;;17.67;79.40
51123;BME280;37162;41.724;13.346;2023-05-24T00:42:48;96566.19;;;17.67;79.25
51123;BME280;37162;41.724;13.346;2023-05-24T00:45:13;96563.50;;;17.67;79.13
51123;BME280;37162;41.724;13.346;2023-05-24T00:47:39;96570.75;;;17.66;79.38
51123;BME280;37162;41.724;13.346;2023-05-24T00:50:06;96566.19;;;17.67;79.19
51123;BME280;37162;41.724;13.346;2023-05-24T00:52:32;96576.13;;;17.66;79.20
51123;BME280;37162;41.724;13.346;2023-05-24T00:54:58;96573.44;;;17.66;79.40
51123;BME280;37162;41.724;13.346;2023-05-24T00:57:23;96576.13;;;17.66;79.34
51123;BME280;37162;41.724;13.346;2023-05-24T00:59:50;96581.50;;;17.66;79.24
51123;BME280;37162;41.724;13.346;2023-05-24T01:02:15;96576.94;;;17.67;79.40
51123;BME280;37162;41.724;13.346;2023-05-24T01:04:42;96576.13;;;17.66;79.32
51123;BME280;37162;41.724;13.346;2023-05-24T01:07:21;96576.94;;;17.67;79.40
51123;BME280;37162;41.724;13.346;2023-05-24T01:10:16;96576.94;;;17.67;79.53
51123;BME280;37162;41.724;13.346;2023-05-24T01:13:05;96576.38;;;17.65;79.59
51123;BME280;37162;41.724;13.346;2023-05-24T01:18:35;96574.50;;;17.65;79.74
51123;BME280;37162;41.724;13.346;2023-05-24T01:23:46;96576.59;;;17.63;79.47
51123;BME280;37162;41.724;13.346;2023-05-24T01:26:23;96568.56;;;17.63;79.62
51123;BME280;37162;41.724;13.346;2023-05-24T01:28:56;96573.91;;;17.63;79.60
51123;BME280;37162;41.724;13.346;2023-05-24T01:31:21;96568.00;;;17.61;79.63
51123;BME280;37162;41.724;13.346;2023-05-24T01:33:47;96572.28;;;17.62;79.48
51123;BME280;37162;41.724;13.346;2023-05-24T01:36:13;96573.38;;;17.61;79.45
51123;BME280;37162;41.724;13.346;2023-05-24T01:38:38;96573.38;;;17.61;79.48
51123;BME280;37162;41.724;13.346;2023-05-24T01:41:17;96579.78;;;17.60;79.33
51123;BME280;37162;41.724;13.346;2023-05-24T01:44:06;96571.75;;;17.60;79.34
51123;BME280;37162;41.724;13.346;2023-05-24T01:46:36;96567.19;;;17.60;79.34
51123;BME280;37162;41.724;13.346;2023-05-24T01:49:10;96562.19;;;17.52;79.42
51123;BME280;37162;41.724;13.346;2023-05-24T01:51:48;96575.47;;;17.59;79.47
51123;BME280;37162;41.724;13.346;2023-05-24T01:54:14;96570.09;;;17.59;79.45
51123;BME280;37162;41.724;13.346;2023-05-24T01:56:43;96572.78;;;17.59;79.47
51123;BME280;37162;41.724;13.346;2023-05-24T01:59:08;96570.09;;;17.59;79.49
51123;BME280;37162;41.724;13.346;2023-05-24T02:01:34;96564.72;;;17.59;79.40
51123;BME280;37162;41.724;13.346;2023-05-24T02:04:00;96569.88;;;17.60;79.39
51123;BME280;37162;41.724;13.346;2023-05-24T02:06:26;96577.91;;;17.60;79.49
51123;BME280;37162;41.724;13.346;2023-05-24T02:08:52;96576.03;;;17.61;79.75
51123;BME280;37162;41.724;13.346;2023-05-24T02:11:17;96571.16;;;17.58;79.55
51123;BME280;37162;41.724;13.346;2023-05-24T02:13:43;96574.97;;;17.62;79.85
51123;BME280;37162;41.724;13.346;2023-05-24T02:16:08;96574.97;;;17.62;79.89
51123;BME280;37162;41.724;13.346;2023-05-24T02:18:34;96572.28;;;17.62;79.77
51123;BME280;37162;41.724;13.346;2023-05-24T02:21:01;96575.78;;;17.62;79.68
51123;BME280;37162;41.724;13.346;2023-05-24T02:23:27;96574.97;;;17.62;79.89
51123;BME280;37162;41.724;13.346;2023-05-24T02:25:52;96576.84;;;17.61;80.04
51123;BME280;37162;41.724;13.346;2023-05-24T02:28:17;96573.38;;;17.61;79.70
51123;BME280;37162;41.724;13.346;2023-05-24T02:30:43;96564.97;;;17.57;79.81
51123;BME280;37162;41.724;13.346;2023-05-24T02:33:09;96571.50;;;17.61;79.84
51123;BME280;37162;41.724;13.346;2023-05-24T02:35:35;96576.03;;;17.61;79.76
51123;BME280;37162;41.724;13.346;2023-05-24T02:38:01;96576.03;;;17.61;79.83
51123;BME280;37162;41.724;13.346;2023-05-24T02:40:27;96571.50;;;17.61;79.71
51123;BME280;37162;41.724;13.346;2023-05-24T02:42:53;96570.69;;;17.61;79.59
51123;BME280;37162;41.724;13.346;2023-05-24T02:45:19;96572.56;;;17.60;79.60
51123;BME280;37162;41.724;13.346;2023-05-24T02:47:44;96565.31;;;17.61;79.62
51123;BME280;37162;41.724;13.346;2023-05-24T02:50:10;96564.25;;;17.62;79.69
51123;BME280;37162;41.724;13.346;2023-05-24T02:52:36;96563.44;;;17.61;79.51
51123;BME280;37162;41.724;13.346;2023-05-24T02:55:01;96557.25;;;17.61;79.56
51123;BME280;37162;41.724;13.346;2023-05-24T02:57:27;96557.25;;;17.61;79.73
51123;BME280;37162;41.724;13.346;2023-05-24T02:59:53;96559.69;;;17.62;79.75
51123;BME280;37162;41.724;13.346;2023-05-24T03:02:18;96543.72;;;17.56;79.90
51123;BME280;37162;41.724;13.346;2023-05-24T03:04:46;96558.88;;;17.62;79.83
51123;BME280;37162;41.724;13.346;2023-05-24T03:07:11;96559.69;;;17.62;79.75
51123;BME280;37162;41.724;13.346;2023-05-24T03:09:38;96556.19;;;17.62;79.72
51123;BME280;37162;41.724;13.346;2023-05-24T03:12:04;96556.19;;;17.62;79.80
51123;BME280;37162;41.724;13.346;2023-05-24T03:14:29;96554.31;;;17.62;79.91
51123;BME280;37162;41.724;13.346;2023-05-24T03:16:55;96547.31;;;17.61;79.64
51123;BME280;37162;41.724;13.346;2023-05-24T03:19:20;96550.81;;;17.62;79.80
51123;BME280;37162;41.724;13.346;2023-05-24T03:21:46;96546.50;;;17.61;79.56
51123;BME280;37162;41.724;13.346;2023-05-24T03:24:11;96545.69;;;17.60;79.56
51123;BME280;37162;41.724;13.346;2023-05-24T03:26:39;96540.31;;;17.60;79.66
51123;BME280;37162;41.724;13.346;2023-05-24T03:29:04;96546.50;;;17.61;79.78
51123;BME280;37162;41.724;13.346;2023-05-24T03:31:30;96550.00;;;17.61;79.55
51123;BME280;37162;41.724;13.346;2023-05-24T03:33:55;96548.38;;;17.60;79.58
51123;BME280;37162;41.724;13.346;2023-05-24T03:36:21;96549.19;;;17.61;79.65
51123;BME280;37162;41.724;13.346;2023-05-24T03:38:46;96549.19;;;17.61;79.63
51123;BME280;37162;41.724;13.346;2023-05-24T03:41:11;96537.75;;;17.54;79.58
51123;BME280;37162;41.724;13.346;2023-05-24T03:43:37;96553.75;;;17.60;79.38
51123;BME280;37162;41.724;13.346;2023-05-24T03:46:02;96555.63;;;17.60;79.32
51123;BME280;37162;41.724;13.346;2023-05-24T03:48:28;96560.75;;;17.61;79.51
51123;BME280;37162;41.724;13.346;2023-05-24T03:50:53;96562.63;;;17.61;79.56
51123;BME280;37162;41.724;13.346;2023-05-24T03:53:19;96562.63;;;17.61;79.60
51123;BME280;37162;41.724;13.346;2023-05-24T03:55:45;96561.56;;;17.62;79.45
51123;BME280;37162;41.724;13.346;2023-05-24T03:58:10;96562.63;;;17.61;79.51
51123;BME280;37162;41.724;13.346;2023-05-24T04:00:36;96569.63;;;17.62;79.79
51123;BME280;37162;41.724;13.346;2023-05-24T04:03:02;96567.75;;;17.62;79.63
51123;BME280;37162;41.724;13.346;2023-05-24T04:05:31;96564.25;;;17.62;79.69
51123;BME280;37162;41.724;13.346;2023-05-24T04:07:56;96562.63;;;17.61;79.82
51123;BME280;37162;41.724;13.346;2023-05-24T04:10:21;96566.13;;;17.61;79.91
51123;BME280;37162;41.724;13.346;2023-05-24T04:12:47;96563.69;;;17.60;79.79
51123;BME280;37162;41.724;13.346;2023-05-24T04:15:13;96566.38;;;17.60;79.66
51123;BME280;37162;41.724;13.346;2023-05-24T04:17:42;96549.81;;;17.51;79.81
51123;BME280;37162;41.724;13.346;2023-05-24T04:20:09;96569.06;;;17.60;79.91
51123;BME280;37162;41.724;13.346;2023-05-24T04:22:34;96571.75;;;17.60;79.66
51123;BME280;37162;41.724;13.346;2023-05-24T04:25:01;96566.03;;;17.56;79.78
51123;BME280;37162;41.724;13.346;2023-05-24T04:27:27;96563.91;;;17.58;79.73
51123;BME280;37162;41.724;13.346;2023-05-24T04:29:54;96571.97;;;17.58;79.56
51123;BME280;37162;41.724;13.346;2023-05-24T04:32:20;96570.09;;;17.59;79.47
51123;BME280;37162;41.724;13.346;2023-05-24T04:34:45;96563.91;;;17.58;79.56
51123;BME280;37162;41.724;13.346;2023-05-24T04:37:12;96575.47;;;17.59;79.61
51123;BME280;37162;41.724;13.346;2023-05-24T04:39:44;96567.41;;;17.59;79.42
51123;BME280;37162;41.724;13.346;2023-05-24T04:42:10;96567.41;;;17.59;79.31
51123;BME280;37162;41.724;13.346;2023-05-24T04:44:36;96570.09;;;17.59;79.53
51123;BME280;37162;41.724;13.346;2023-05-24T04:47:02;96576.28;;;17.59;79.31
51123;BME280;37162;41.724;13.346;2023-05-24T04:49:28;96574.44;;;17.60;79.40
51123;BME280;37162;41.724;13.346;2023-05-24T04:51:54;96577.91;;;17.60;79.49
51123;BME280;37162;41.724;13.346;2023-05-24T04:54:20;96580.34;;;17.62;79.48
51123;BME280;37162;41.724;13.346;2023-05-24T04:56:45;96583.03;;;17.62;79.55
51123;BME280;37162;41.724;13.346;2023-05-24T04:59:11;96589.22;;;17.62;79.39
51123;BME280;37162;41.724;13.346;2023-05-24T05:01:36;96583.84;;;17.62;79.42
51123;BME280;37162;41.724;13.346;2023-05-24T05:04:03;96591.66;;;17.64;79.49
51123;BME280;37162;41.724;13.346;2023-05-24T05:06:28;96583.84;;;17.62;79.66
51123;BME280;37162;41.724;13.346;2023-05-24T05:08:54;96584.44;;;17.65;79.50
51123;BME280;37162;41.724;13.346;2023-05-24T05:11:19;96585.25;;;17.65;79.63
51123;BME280;37162;41.724;13.346;2023-05-24T05:13:45;96589.81;;;17.65;79.73
51123;BME280;37162;41.724;13.346;2023-05-24T05:16:10;96576.53;;;17.58;79.32
51123;BME280;37162;41.724;13.346;2023-05-24T05:18:36;96579.88;;;17.65;79.67
51123;BME280;37162;41.724;13.346;2023-05-24T05:21:02;96584.19;;;17.66;79.66
51123;BME280;37162;41.724;13.346;2023-05-24T05:23:28;96586.88;;;17.66;79.71
51123;BME280;37162;41.724;13.346;2023-05-24T05:25:54;96589.31;;;17.68;79.44
51123;BME280;37162;41.724;13.346;2023-05-24T05:28:20;96579.53;;;17.61;79.43
51123;BME280;37162;41.724;13.346;2023-05-24T05:30:45;96582.78;;;17.63;79.59
51123;BME280;37162;41.724;13.346;2023-05-24T05:33:11;96583.13;;;17.67;79.37
51123;BME280;37162;41.724;13.346;2023-05-24T05:35:36;96590.13;;;17.68;79.35
51123;BME280;37162;41.724;13.346;2023-05-24T05:38:02;96590.94;;;17.69;79.58
51123;BME280;37162;41.724;13.346;2023-05-24T05:40:27;96588.25;;;17.69;79.57
51123;BME280;37162;41.724;13.346;2023-05-24T05:42:52;96586.41;;;17.69;79.40
51123;BME280;37162;41.724;13.346;2023-05-24T05:45:18;96595.28;;;17.70;79.23
51123;BME280;37162;41.724;13.346;2023-05-24T05:47:43;96592.34;;;17.71;79.40
51123;BME280;37162;41.724;13.346;2023-05-24T05:50:09;96594.78;;;17.73;79.38
51123;BME280;37162;41.724;13.346;2023-05-24T05:52:35;96593.78;;;17.74;79.47
51123;BME280;37162;41.724;13.346;2023-05-24T05:55:00;96592.72;;;17.75;79.24
51123;BME280;37162;41.724;13.346;2023-05-24T05:57:26;96598.09;;;17.75;79.41
51123;BME280;37162;41.724;13.346;2023-05-24T05:59:51;96596.22;;;17.75;79.23
51123;BME280;37162;41.724;13.346;2023-05-24T06:02:17;96598.09;;;17.75;79.22
51123;BME280;37162;41.724;13.346;2023-05-24T06:04:49;96595.16;;;17.76;79.29
51123;BME280;37162;41.724;13.346;2023-05-24T06:07:14;96597.03;;;17.76;79.14
51123;BME280;37162;41.724;13.346;2023-05-24T06:09:39;96595.16;;;17.76;78.93
51123;BME280;37162;41.724;13.346;2023-05-24T06:12:05;96593.28;;;17.77;79.06
51123;BME280;37162;41.724;13.346;2023-05-24T06:14:30;96592.22;;;17.78;79.01
51123;BME280;37162;41.724;13.346;2023-05-24T06:16:57;96595.50;;;17.80;78.91
51123;BME280;37162;41.724;13.346;2023-05-24T06:19:22;96595.50;;;17.80;78.79
51123;BME280;37162;41.724;13.346;2023-05-24T06:21:48;96579.50;;;17.73;78.94
51123;BME280;37162;41.724;13.346;2023-05-24T06:24:15;96594.44;;;17.81;78.62
51123;BME280;37162;41.724;13.346;2023-05-24T06:26:45;96586.03;;;17.77;78.82
51123;BME280;37162;41.724;13.346;2023-05-24T06:29:11;96596.06;;;17.82;78.84
51123;BME280;37162;41.724;13.346;2023-05-24T06:31:36;96591.25;;;17.84;78.93
51123;BME280;37162;41.724;13.346;2023-05-24T06:34:02;96590.44;;;17.83;78.92
51123;BME280;37162;41.724;13.346;2023-05-24T06:36:27;96593.94;;;17.84;78.92
51123;BME280;37162;41.724;13.346;2023-05-24T06:38:53;96592.88;;;17.85;78.75
51123;BME280;37162;41.724;13.346;2023-05-24T06:41:18;96596.38;;;17.85;78.86
51123;BME280;37162;41.724;13.346;2023-05-24T06:43:44;96597.19;;;17.86;78.71
51123;BME280;37162;41.724;13.346;2023-05-24T06:46:10;96592.63;;;17.86;78.80
51123;BME280;37162;41.724;13.346;2023-05-24T06:48:36;96601.50;;;17.87;78.84
51123;BME280;37162;41.724;13.346;2023-05-24T06:51:01;96598.81;;;17.87;78.88
51123;BME280;37162;41.724;13.346;2023-05-24T06:53:26;96600.47;;;17.88;78.75
51123;BME280;37162;41.724;13.346;2023-05-24T06:55:52;96593.13;;;17.83;78.72
51123;BME280;37162;41.724;13.346;2023-05-24T06:58:17;96604.78;;;17.89;78.66
51123;BME280;37162;41.724;13.346;2023-05-24T07:00:43;96596.72;;;17.89;78.72
51123;BME280;37162;41.724;13.346;2023-05-24T07:03:11;96602.91;;;17.90;78.93
51123;BME280;37162;41.724;13.346;2023-05-24T07:05:37;96606.41;;;17.90;78.78
51123;BME280;37162;41.724;13.346;2023-05-24T07:08:03;96588.31;;;17.85;78.69
51123;BME280;37162;41.724;13.346;2023-05-24T07:10:28;96600.78;;;17.92;78.64
51123;BME280;37162;41.724;13.346;2023-05-24T07:12:54;96597.63;;;17.95;78.60
51123;BME280;37162;41.724;13.346;2023-05-24T07:15:20;96601.19;;;18.00;78.59
51123;BME280;37162;41.724;13.346;2023-05-24T07:17:45;96604.69;;;18.01;78.71
51123;BME280;37162;41.724;13.346;2023-05-24T07:20:12;96610.06;;;18.01;78.72
51123;BME280;37162;41.724;13.346;2023-05-24T07:22:38;96610.06;;;18.01;78.63
51123;BME280;37162;41.724;13.346;2023-05-24T07:25:04;96598.50;;;18.00;78.49
51123;BME280;37162;41.724;13.346;2023-05-24T07:27:30;96597.69;;;18.00;78.52
51123;BME280;37162;41.724;13.346;2023-05-24T07:29:55;96598.50;;;18.00;78.51
51123;BME280;37162;41.724;13.346;2023-05-24T07:32:21;96608.44;;;18.00;78.43
51123;BME280;37162;41.724;13.346;2023-05-24T07:34:47;96609.53;;;17.99;78.34
51123;BME280;37162;41.724;13.346;2023-05-24T07:37:12;96610.31;;;17.99;78.40
51123;BME280;37162;41.724;13.346;2023-05-24T07:39:38;96611.41;;;17.98;78.54
51123;BME280;37162;41.724;13.346;2023-05-24T07:42:04;96609.53;;;17.99;78.56
51123;BME280;37162;41.724;13.346;2023-05-24T07:44:29;96605.75;;;18.00;78.39
51123;BME280;37162;41.724;13.346;2023-05-24T07:46:55;96601.19;;;18.00;78.47
51123;BME280;37162;41.724;13.346;2023-05-24T07:49:21;96593.53;;;17.92;78.60
51123;BME280;37162;41.724;13.346;2023-05-24T07:51:47;96601.19;;;18.00;78.51
51123;BME280;37162;41.724;13.346;2023-05-24T07:54:13;96602.81;;;18.01;78.34
51123;BME280;37162;41.724;13.346;2023-05-24T07:56:40;96609.25;;;18.00;78.51
51123;BME280;37162;41.724;13.346;2023-05-24T07:59:05;96603.06;;;18.00;78.55
51123;BME280;37162;41.724;13.346;2023-05-24T08:01:33;96610.06;;;18.01;78.59
51123;BME280;37162;41.724;13.346;2023-05-24T08:04:00;96604.63;;;17.96;78.35
51123;BME280;37162;41.724;13.346;2023-05-24T08:06:28;96614.66;;;18.00;78.42
51123;BME280;37162;41.724;13.346;2023-05-24T08:08:53;96610.88;;;18.01;78.36
51123;BME280;37162;41.724;13.346;2023-05-24T08:11:19;96606.31;;;18.02;78.54
51123;BME280;37162;41.724;13.346;2023-05-24T08:13:44;96610.66;;;18.03;78.55
51123;BME280;37162;41.724;13.346;2023-05-24T08:16:10;96600.13;;;18.01;78.34
51123;BME280;37162;41.724;13.346;2023-05-24T08:18:35;96598.50;;;18.00;78.34
51123;BME280;37162;41.724;13.346;2023-05-24T08:21:01;96590.38;;;17.95;78.40
51123;BME280;37162;41.724;13.346;2023-05-24T08:23:26;96592.81;;;17.97;78.26
51123;BME280;37162;41.724;13.346;2023-05-24T08:25:55;96602.59;;;18.03;78.43
51123;BME280;37162;41.724;13.346;2023-05-24T08:28:21;96604.22;;;18.04;78.31
51123;BME280;37162;41.724;13.346;2023-05-24T08:30:49;96594.19;;;17.99;78.43
51123;BME280;37162;41.724;13.346;2023-05-24T08:33:15;96607.47;;;18.06;78.53
51123;BME280;37162;41.724;13.346;2023-05-24T08:35:40;96603.16;;;18.05;78.52
51123;BME280;37162;41.724;13.346;2023-05-24T08:38:06;96594.28;;;18.04;78.23
51123;BME280;37162;41.724;13.346;2023-05-24T08:40:32;96604.88;;;18.11;78.18
51123;BME280;37162;41.724;13.346;2023-05-24T08:42:59;96594.63;;;18.08;78.25
51123;BME280;37162;41.724;13.346;2023-05-24T08:45:28;96604.38;;;18.14;78.17
51123;BME280;37162;41.724;13.346;2023-05-24T08:47:55;96608.47;;;18.17;78.25
51123;BME280;37162;41.724;13.346;2023-05-24T08:50:21;96603.56;;;18.13;78.27
51123;BME280;37162;41.724;13.346;2023-05-24T08:52:47;96606.34;;;18.19;78.00
51123;BME280;37162;41.724;13.346;2023-05-24T08:55:13;96614.16;;;18.20;78.02
51123;BME280;37162;41.724;13.346;2023-05-24T08:57:39;96606.91;;;18.21;77.96
51123;BME280;37162;41.724;13.346;2023-05-24T09:00:09;96612.88;;;18.23;77.72
51123;BME280;37162;41.724;13.346;2023-05-24T09:02:37;96609.94;;;18.24;77.85
51123;BME280;37162;41.724;13.346;2023-05-24T09:05:03;96608.84;;;18.25;77.69
51123;BME280;37162;41.724;13.346;2023-05-24T09:07:31;96602.03;;;18.18;77.62
51123;BME280;37162;41.724;13.346;2023-05-24T09:09:59;96611.31;;;18.27;77.50
51123;BME280;37162;41.724;13.346;2023-05-24T09:12:26;96610.25;;;18.28;77.67
51123;BME280;37162;41.724;13.346;2023-05-24T09:14:55;96612.47;;;18.31;77.53
51123;BME280;37162;41.724;13.346;2023-05-24T09:17:21;96607.91;;;18.31;77.46
51123;BME280;37162;41.724;13.346;2023-05-24T09:19:49;96610.91;;;18.35;77.34
51123;BME280;37162;41.724;13.346;2023-05-24T09:22:16;96608.78;;;18.37;77.26
51123;BME280;37162;41.724;13.346;2023-05-24T09:24:48;96603.06;;;18.33;77.22
51123;BME280;37162;41.724;13.346;2023-05-24T09:27:15;96609.34;;;18.39;77.18
51123;BME280;37162;41.724;13.346;2023-05-24T09:29:45;96601.78;;;18.36;77.27
51123;BME280;37162;41.724;13.346;2023-05-24T09:32:13;96602.66;;;18.42;76.97
51123;BME280;37162;41.724;13.346;2023-05-24T09:34:40;96603.22;;;18.44;77.06
51123;BME280;37162;41.724;13.346;2023-05-24T09:37:26;96604.88;;;18.45;76.83
51123;BME280;37162;41.724;13.346;2023-05-24T09:39:53;96603.00;;;18.45;76.92
51123;BME280;37162;41.724;13.346;2023-05-24T09:42:21;96605.19;;;18.48;76.85
51123;BME280;37162;41.724;13.346;2023-05-24T09:44:59;96616.53;;;18.50;76.78
51123;BME280;37162;41.724;13.346;2023-05-24T09:47:32;96603.06;;;18.50;76.54
51123;BME280;37162;41.724;13.346;2023-05-24T09:49:59;96612.78;;;18.51;76.56
51123;BME280;37162;41.724;13.346;2023-05-24T09:52:25;96608.19;;;18.52;76.39
51123;BME280;37162;41.724;13.346;2023-05-24T09:54:50;96616.00;;;18.53;76.26
51123;BME280;37162;41.724;13.346;2023-05-24T09:57:16;96600.72;;;18.54;76.34
51123;BME280;37162;41.724;13.346;2023-05-24T09:59:42;96609.59;;;18.54;76.36
51123;BME280;37162;41.724;13.346;2023-05-24T10:02:10;96602.09;;;18.56;76.29
51123;BME280;37162;41.724;13.346;2023-05-24T10:04:37;96604.78;;;18.56;76.18
51123;BME280;37162;41.724;13.346;2023-05-24T10:07:03;96599.13;;;18.58;76.21
51123;BME280;37162;41.724;13.346;2023-05-24T10:09:30;96601.59;;;18.59;76.10
51123;BME280;37162;41.724;13.346;2023-05-24T10:12:05;96589.38;;;18.52;76.18
51123;BME280;37162;41.724;13.346;2023-05-24T10:14:36;96598.66;;;18.61;76.14
51123;BME280;37162;41.724;13.346;2023-05-24T10:17:06;96583.25;;;18.56;76.14
51123;BME280;37162;41.724;13.346;2023-05-24T10:19:32;96591.13;;;18.63;76.14
51123;BME280;37162;41.724;13.346;2023-05-24T10:21:59;96594.88;;;18.62;76.09
51123;BME280;37162;41.724;13.346;2023-05-24T10:24:30;96589.84;;;18.65;76.13
51123;BME280;37162;41.724;13.346;2023-05-24T10:26:57;96587.69;;;18.68;76.01
51123;BME280;37162;41.724;13.346;2023-05-24T10:32:23;96584.06;;;18.74;75.87
51123;BME280;37162;41.724;13.346;2023-05-24T10:34:51;96582.75;;;18.76;75.85
51123;BME280;37162;41.724;13.346;2023-05-24T10:37:18;96584.94;;;18.79;75.57
51123;BME280;37162;41.724;13.346;2023-05-24T10:39:43;96576.59;;;18.81;75.37
51123;BME280;37162;41.724;13.346;2023-05-24T10:42:09;96576.38;;;18.82;75.42
51123;BME280;37162;41.724;13.346;2023-05-24T10:44:37;96578.00;;;18.83;75.29
51123;BME280;37162;41.724;13.346;2023-05-24T10:47:13;96573.69;;;18.82;75.23
51123;BME280;37162;41.724;13.346;2023-05-24T10:49:49;96572.03;;;18.81;75.23
51123;BME280;37162;41.724;13.346;2023-05-24T10:52:16;96562.09;;;18.82;75.22
51123;BME280;37162;41.724;13.346;2023-05-24T10:55:04;96570.41;;;18.80;75.11
51123;BME280;37162;41.724;13.346;2023-05-24T10:57:31;96554.19;;;18.75;75.31
51123;BME280;37162;41.724;13.346;2023-05-24T10:59:57;96573.38;;;18.79;75.12
51123;BME280;37162;41.724;13.346;2023-05-24T11:02:40;96562.59;;;18.79;75.14
51123;BME280;37162;41.724;13.346;2023-05-24T11:05:06;96559.91;;;18.79;75.17
51123;BME280;37162;41.724;13.346;2023-05-24T11:07:40;96556.41;;;18.78;74.87
51123;BME280;37162;41.724;13.346;2023-05-24T11:10:17;96557.47;;;18.77;75.06
51123;BME280;37162;41.724;13.346;2023-05-24T11:12:59;96544.84;;;18.78;74.87
51123;BME280;37162;41.724;13.346;2023-05-24T11:15:26;96547.53;;;18.78;74.96
51123;BME280;37162;41.724;13.346;2023-05-24T11:20:41;96539.19;;;18.79;75.16
51123;BME280;37162;41.724;13.346;2023-05-24T11:23:07;96543.75;;;18.79;75.10
51123;BME280;37162;41.724;13.346;2023-05-24T11:25:34;96539.19;;;18.79;74.99
51123;BME280;37162;41.724;13.346;2023-05-24T11:28:07;96540.81;;;18.80;75.02
51123;BME280;37162;41.724;13.346;2023-05-24T11:30:41;96536.25;;;18.81;74.94
51123;BME280;37162;41.724;13.346;2023-05-24T11:35:38;96535.16;;;18.82;74.85
51123;BME280;37162;41.724;13.346;2023-05-24T11:38:09;96533.31;;;18.82;74.74
51123;BME280;37162;41.724;13.346;2023-05-24T11:40:37;96524.59;;;18.75;74.87
51123;BME280;37162;41.724;13.346;2023-05-24T11:43:05;96538.69;;;18.82;74.79
51123;BME280;37162;41.724;13.346;2023-05-24T11:45:30;96533.31;;;18.82;74.73
51123;BME280;37162;41.724;13.346;2023-05-24T11:47:56;96531.44;;;18.83;74.67
51123;BME280;37162;41.724;13.346;2023-05-24T11:50:24;96522.56;;;18.82;74.67
51123;BME280;37162;41.724;13.346;2023-05-24T11:52:50;96524.16;;;18.83;74.77
51123;BME280;37162;41.724;13.346;2023-05-24T11:55:22;96517.97;;;18.83;74.69
51123;BME280;37162;41.724;13.346;2023-05-24T11:57:57;96520.72;;;18.88;74.38
51123;BME280;37162;41.724;13.346;2023-05-24T12:00:26;96518.97;;;18.99;73.54
51123;BME280;37162;41.724;13.346;2023-05-24T12:02:55;96509.31;;;19.03;73.58
51123;BME280;37162;41.724;13.346;2023-05-24T12:05:21;96516.63;;;19.07;73.45
51123;BME280;37162;41.724;13.346;2023-05-24T12:07:47;96512.56;;;19.05;73.56
51123;BME280;37162;41.724;13.346;2023-05-24T12:10:15;96513.91;;;19.02;73.69
51123;BME280;37162;41.724;13.346;2023-05-24T12:12:43;96516.59;;;19.02;73.66
51123;BME280;37162;41.724;13.346;2023-05-24T12:15:10;96512.00;;;19.03;73.75
51123;BME280;37162;41.724;13.346;2023-05-24T12:17:36;96507.13;;;19.00;73.81
51123;BME280;37162;41.724;13.346;2023-05-24T12:20:02;96498.19;;;18.94;73.84
51123;BME280;37162;41.724;13.346;2023-05-24T12:22:28;96493.59;;;18.95;74.03
51123;BME280;37162;41.724;13.346;2023-05-24T12:24:56;96491.97;;;18.94;73.97
51123;BME280;37162;41.724;13.346;2023-05-24T12:27:25;96501.13;;;18.93;73.99
51123;BME280;37162;41.724;13.346;2023-05-24T12:29:51;96496.81;;;18.92;74.09
51123;BME280;37162;41.724;13.346;2023-05-24T12:32:16;96509.44;;;18.91;74.20
51123;BME280;37162;41.724;13.346;2023-05-24T12:34:43;96481.66;;;18.85;74.05
51123;BME280;37162;41.724;13.346;2023-05-24T12:37:09;96484.66;;;18.89;74.21
51123;BME280;37162;41.724;13.346;2023-05-24T12:39:36;96474.97;;;18.88;74.12
51123;BME280;37162;41.724;13.346;2023-05-24T12:42:03;96487.63;;;18.87;74.19
51123;BME280;37162;41.724;13.346;2023-05-24T12:44:33;96485.41;;;18.84;74.18
51123;BME280;37162;41.724;13.346;2023-05-24T12:47:01;96485.41;;;18.84;74.19
51123;BME280;37162;41.724;13.346;2023-05-24T12:49:27;96477.59;;;18.83;74.37
51123;BME280;37162;41.724;13.346;2023-05-24T12:51:54;96480.53;;;18.81;74.39
51123;BME280;37162;41.724;13.346;2023-05-24T12:54:25;96464.91;;;18.78;74.29
51123;BME280;37162;41.724;13.346;2023-05-24T12:56:55;96470.28;;;18.78;74.39
51123;BME280;37162;41.724;13.346;2023-05-24T12:59:33;96465.13;;;18.77;74.54
51123;BME280;37162;41.724;13.346;2023-05-24T13:01:59;96469.16;;;18.74;74.44
51123;BME280;37162;41.724;13.346;2023-05-24T13:04:25;96458.34;;;18.69;74.61